Flight Track Log - Related Links

Times and Time Zones

All times are in EDT time to prevent confusion due to time zone crossing. See the N510SR flight status page for this flight to view local times or setup timezone preferences in your user account.

Time Position Orientation Groundspeed Altitude Reporting Facility
EDT Latitude Longitude Course Direction KTS MPH feet Rate Location/Type
Wed 10:22:29 PM 40.8167 -74.1333 56° Northeast 198 228 1,600  Level New York TRACON
Wed 10:23:29 PM 40.8167 -74.2167 270° West 231 266 3,500 1,667 Climbing New York TRACON
Wed 10:24:35 PM 40.8500 -74.2833 303° West 243 280 5,100 1,050 Climbing New York TRACON
Wed 10:25:29 PM 40.9167 -74.2500 21° North 265 305 5,600 1,316 Climbing New York TRACON
Wed 10:26:29 PM 40.9833 -74.2167 21° North 272 313 7,600 2,300 Climbing New York TRACON
Wed 10:27:00 PM 41.2491 -73.7019 56° Northeast  Level FlightAware Approximate
Wed 10:27:29 PM 41.0333 -74.1167 56° Northeast 289 333 10,200  Level New York TRACON
Wed 10:28:35 PM 41.0833 -74.0167 56° Northeast 349 402 11,600 1,650 Climbing New York TRACON
Wed 10:29:29 PM 41.1167 -73.9000 69° East 373 429 13,500 2,013 Climbing New York TRACON
Wed 10:31:04 PM 41.1867 -73.7033 65° Northeast 404 465 16,600 1,394 Climbing Boston Center
Wed 10:32:04 PM 41.2275 -73.5828 66° East 398 458 17,100 900 Climbing Boston Center
Wed 10:33:04 PM 41.2789 -73.4317 66° East 398 458 18,400 1,400 Climbing Boston Center
Wed 10:34:04 PM 41.3322 -73.2889 64° Northeast 403 464 19,900 1,650 Climbing Boston Center
Wed 10:35:04 PM 41.3875 -73.1483 62° Northeast 408 470 21,700 1,600 Climbing Boston Center
Wed 10:36:04 PM 41.4467 -73.0106 60° Northeast 419 482 23,100 1,300 Climbing Boston Center
Wed 10:37:04 PM 41.5097 -72.8725 59° Northeast 429 494 24,300 1,250 Climbing Boston Center
Wed 10:38:04 PM 41.5686 -72.7286 61° Northeast 434 499 25,600 1,150 Climbing Boston Center
Wed 10:39:04 PM 41.6356 -72.5872 58° Northeast 446 513 26,600 1,050 Climbing Boston Center
Wed 10:40:04 PM 41.7044 -72.4372 58° Northeast 451 519 27,700 1,250 Climbing Boston Center
Wed 10:41:04 PM 41.7708 -72.2925 58° Northeast 451 519 29,100 1,250 Climbing Boston Center
Wed 10:42:04 PM 41.8311 -72.1558 59° Northeast 456 525 30,200 1,250 Climbing Boston Center
Wed 10:43:04 PM 41.8994 -72.0078 58° Northeast 456 525 31,600 1,300 Climbing Boston Center
Wed 10:44:04 PM 41.9656 -71.8622 59° Northeast 456 525 32,800 1,350 Climbing Boston Center
Wed 10:45:04 PM 42.0333 -71.7133 58° Northeast 456 525 34,300 1,400 Climbing Boston Center
Wed 10:46:04 PM 42.1053 -71.5531 59° Northeast 456 525 35,600 1,300 Climbing Boston Center
Wed 10:47:04 PM 42.1622 -71.4039 63° Northeast 451 519 36,900 1,400 Climbing Boston Center
Wed 10:48:04 PM 42.2192 -71.2597 62° Northeast 446 513 38,400 1,350 Climbing Boston Center
Wed 10:49:04 PM 42.2761 -71.1186 61° Northeast 434 499 39,600 950 Climbing Boston Center
Wed 10:50:04 PM 42.3306 -70.9769 62° Northeast 429 494 40,300 700 Climbing Boston Center
Wed 10:51:04 PM 42.3850 -70.8378 62° Northeast 424 488 41,000 350 Climbing Boston Center
Wed 10:52:04 PM 42.4331 -70.7044 64° Northeast 424 488 41,000 50 Level Boston Center
Wed 10:53:04 PM 42.4769 -70.5850 63° Northeast 430 495 41,100  Climbing Boston Center
Wed 10:54:04 PM 42.5469 -70.4053 62° Northeast 436 502 41,000 -50 Descending Boston Center
Wed 10:55:04 PM 42.6067 -70.2539 62° Northeast 441 507 41,000  Level Boston Center
Wed 10:56:04 PM 42.6639 -70.1022 63° Northeast 441 507 41,000  Level Boston Center
Wed 10:57:04 PM 42.7211 -69.9475 63° Northeast 441 507 41,000 50 Level Boston Center
Wed 10:58:04 PM 42.7803 -69.7922 63° Northeast 446 513 41,100  Climbing Boston Center
Wed 10:59:04 PM 42.8450 -69.6253 62° Northeast 451 519 41,000 -50 Descending Boston Center
Wed 11:00:04 PM 42.9017 -69.4808 62° Northeast 457 526 41,000  Level Boston Center
Wed 11:01:04 PM 42.9578 -69.3192 65° Northeast 457 526 41,000  Level Boston Center
Wed 11:02:04 PM 43.0161 -69.1628 63° Northeast 457 526 41,000  Level Boston Center
Wed 11:03:04 PM 43.0739 -69.0006 64° Northeast 463 533 41,000 50 Level Boston Center
Wed 11:04:04 PM 43.1392 -68.8233 63° Northeast 463 533 41,100  Climbing Boston Center
Wed 11:05:04 PM 43.1964 -68.6603 64° Northeast 468 539 41,000 -50 Descending Boston Center
Wed 11:06:04 PM 43.2500 -68.5172 63° Northeast 468 539 41,000  Level Boston Center
Wed 11:07:05 PM 43.3089 -68.3536 64° Northeast 468 539 41,000  Level Boston Center
Wed 11:08:04 PM 43.3675 -68.1897 64° Northeast 468 539 41,000  Level Boston Center
Wed 11:09:04 PM 43.4239 -68.0283 64° Northeast 473 544 41,000  Level Boston Center
Wed 11:10:04 PM 43.4800 -67.8639 65° Northeast 473 544 41,000  Level Boston Center
Wed 11:11:04 PM 43.5400 -67.6961 64° Northeast 478 550 41,000  Level Boston Center
Wed 11:12:04 PM 43.5956 -67.5339 65° Northeast 478 550 41,000  Level Boston Center
Wed 11:12:42 PM 43.6333 -67.4000 69° East 480 552 41,000  Level Moncton Center
Wed 11:13:42 PM 43.6833 -67.2333 67° East 480 552 41,000  Level Moncton Center
Wed 11:14:42 PM 43.7333 -67.0833 65° Northeast 470 541 41,000 50 Level Moncton Center
Wed 11:15:42 PM 43.7833 -66.9167 67° East 470 541 41,100 50 Climbing Moncton Center
Wed 11:16:42 PM 43.8500 -66.7333 63° Northeast 470 541 41,100  Level Moncton Center
Wed 11:17:42 PM 43.9000 -66.5833 65° Northeast 480 552 41,100  Level Moncton Center
Wed 11:18:42 PM 43.9667 -66.4167 61° Northeast 480 552 41,100 -50 Level Moncton Center
Wed 11:19:42 PM 44.0167 -66.2333 69° East 490 564 41,000  Descending Moncton Center
Wed 11:20:42 PM 44.0667 -66.0667 67° East 480 552 41,100 50 Climbing Moncton Center
Wed 11:21:42 PM 44.1333 -65.8833 63° Northeast 480 552 41,100  Level Moncton Center
Wed 11:22:42 PM 44.1833 -65.7333 65° Northeast 480 552 41,100  Level Moncton Center
Wed 11:23:42 PM 44.2500 -65.5667 61° Northeast 480 552 41,100 -50 Level Moncton Center
Wed 11:24:42 PM 44.3000 -65.4000 67° East 480 552 41,000  Descending Moncton Center
Wed 11:25:42 PM 44.3500 -65.2167 69° East 490 564 41,100 50 Climbing Moncton Center
Wed 11:26:42 PM 44.4000 -65.0500 67° East 490 564 41,100  Level Moncton Center
Wed 11:27:42 PM 44.4500 -64.8667 69° East 500 575 41,100  Level Moncton Center
Wed 11:28:42 PM 44.5167 -64.6833 63° Northeast 500 575 41,100 -50 Level Moncton Center
Wed 11:29:42 PM 44.5667 -64.5167 67° East 490 564 41,000  Descending Moncton Center
Wed 11:30:42 PM 44.6167 -64.3333 69° East 490 564 41,100 50 Climbing Moncton Center
Wed 11:31:42 PM 44.6667 -64.1667 67° East 490 564 41,100  Level Moncton Center
Wed 11:32:42 PM 44.7333 -63.9667 65° Northeast 480 552 41,100  Level Moncton Center
Wed 11:33:42 PM 44.7833 -63.8000 67° East 480 552 41,100  Level Moncton Center
Wed 11:34:42 PM 44.8667 -63.6667 49° Northeast 470 541 41,100  Level Moncton Center
Wed 11:35:42 PM 44.9833 -63.5667 31° Northeast 460 529 41,100  Level Moncton Center
Wed 11:36:42 PM 45.0833 -63.4667 35° Northeast 460 529 41,100  Level Moncton Center
Wed 11:37:42 PM 45.2000 -63.3833 27° Northeast 450 518 41,100  Level Moncton Center
Wed 11:38:42 PM 45.3000 -63.3000 30° Northeast 450 518 41,100 -50 Level Moncton Center
Wed 11:39:42 PM 45.4167 -63.2000 31° Northeast 450 518 41,000  Descending Moncton Center
Wed 11:40:42 PM 45.5167 -63.1000 35° Northeast 460 529 41,100  Climbing Moncton Center
Wed 11:41:42 PM 45.6333 -63.0333 22° Northeast 460 529 41,000  Descending Moncton Center
Wed 11:42:42 PM 45.7500 -62.9333 31° Northeast 460 529 41,100  Climbing Moncton Center
Wed 11:43:42 PM 45.8500 -62.8333 35° Northeast 460 529 41,000 -50 Descending Moncton Center
Wed 11:44:42 PM 45.9667 -62.7333 31° Northeast 460 529 41,000 50 Level Moncton Center
Wed 11:45:42 PM 46.0833 -62.6667 22° Northeast 450 518 41,100 50 Climbing Moncton Center
Wed 11:46:42 PM 46.1833 -62.5667 35° Northeast 450 518 41,100  Level Moncton Center
Wed 11:47:42 PM 46.2833 -62.4667 35° Northeast 450 518 41,100  Level Moncton Center
Wed 11:48:42 PM 46.4000 -62.3833 26° Northeast 450 518 41,100  Level Moncton Center
Wed 11:49:42 PM 46.5167 -62.2833 31° Northeast 450 518 41,100  Level Moncton Center
Wed 11:50:42 PM 46.6167 -62.1833 34° Northeast 450 518 41,100  Level Moncton Center
Wed 11:51:42 PM 46.7167 -62.1000 30° Northeast 450 518 41,100  Level Moncton Center
Wed 11:52:42 PM 46.8333 -62.0000 30° Northeast 460 529 41,100  Level Moncton Center
Wed 11:53:42 PM 46.9333 -61.9000 34° Northeast 460 529 41,100  Level Moncton Center
Wed 11:54:42 PM 47.0500 -61.8000 30° Northeast 460 529 41,100  Level Moncton Center
Wed 11:55:42 PM 47.1667 -61.6833 34° Northeast 460 529 41,100  Level Moncton Center
Wed 11:56:42 PM 47.2667 -61.6167 24° Northeast 460 529 41,100  Level Moncton Center
Wed 11:57:42 PM 47.3833 -61.5000 34° Northeast 470 541 41,100  Level Moncton Center
Wed 11:58:42 PM 47.5000 -61.4000 30° Northeast 460 529 41,100  Level Moncton Center
Wed 11:59:42 PM 47.6000 -61.3167 29° Northeast 460 529 41,100  Level Moncton Center
Thu 12:00:42 AM 47.7167 -61.2167 30° Northeast 460 529 41,100  Level Moncton Center
Thu 12:01:42 AM 47.8167 -61.1000 38° Northeast 470 541 41,100  Level Moncton Center
Thu 12:02:42 AM 47.9333 -61.0000 30° Northeast 470 541 41,100  Level Moncton Center
Thu 12:03:42 AM 48.0500 -60.8833 34° Northeast 470 541 41,100  Level Moncton Center
Thu 12:04:42 AM 48.1500 -60.8000 29° Northeast 470 541 41,100  Level Moncton Center
Thu 12:05:42 AM 48.2833 -60.7000 27° Northeast 470 541 41,100  Level Moncton Center
Thu 12:06:42 AM 48.3667 -60.5833 43° Northeast 470 541 41,100  Level Moncton Center
Thu 12:07:42 AM 48.4833 -60.4833 30° Northeast 470 541 41,100  Level Moncton Center
Thu 12:08:42 AM 48.6000 -60.3667 33° Northeast 470 541 41,100 -50 Level Moncton Center
Thu 12:09:42 AM 48.7167 -60.2667 29° Northeast 470 541 41,000  Descending Moncton Center
Thu 12:10:42 AM 48.8333 -60.1500 33° Northeast 480 552 41,100  Climbing Moncton Center
Thu 12:11:42 AM 48.9167 -60.0667 33° Northeast 470 541 41,000  Descending Moncton Center
Thu 12:12:42 AM 49.0500 -59.9500 30° Northeast 470 541 41,100  Climbing Moncton Center
Thu 12:13:42 AM 49.1500 -59.8333 37° Northeast 470 541 41,000  Descending Moncton Center
Thu 12:14:42 AM 49.2667 -59.7333 29° Northeast 470 541 41,100  Climbing Moncton Center
Thu 12:15:42 AM 49.3833 -59.6167 33° Northeast 470 541 41,000 -50 Descending Moncton Center
Thu 12:16:42 AM 49.4833 -59.5167 33° Northeast 480 552 41,000  Level Moncton Center
Thu 12:17:42 AM 49.6000 -59.4167 29° Northeast 480 552 41,000  Level Moncton Center
Thu 12:18:42 AM 49.7167 -59.3000 33° Northeast 480 552 41,000 50 Level Moncton Center
Thu 12:19:42 AM 49.8333 -59.1833 33° Northeast 480 552 41,100 50 Climbing Moncton Center
Thu 12:20:42 AM 49.9333 -59.0667 37° Northeast 480 552 41,100  Level Moncton Center
Thu 12:21:42 AM 50.0500 -58.9500 33° Northeast 480 552 41,100 -50 Level Moncton Center
Thu 12:22:42 AM 50.1667 -58.8333 33° Northeast 480 552 41,000 -50 Descending Moncton Center
Thu 12:23:42 AM 50.2500 -58.7167 42° Northeast 480 552 41,000  Level Moncton Center
Thu 12:24:42 AM 50.3667 -58.5667 39° Northeast 490 564 41,000 50 Level Moncton Center
Thu 12:25:42 AM 50.4667 -58.4167 44° Northeast 500 575 41,100 50 Climbing Moncton Center
Thu 12:26:42 AM 50.5667 -58.2500 47° Northeast 500 575 41,100  Level Moncton Center
Thu 12:27:42 AM 50.6667 -58.1000 44° Northeast 500 575 41,100  Level Moncton Center
Thu 12:28:42 AM 50.7667 -57.9333 46° Northeast 500 575 41,100  Level Moncton Center
Thu 12:29:42 AM 50.8667 -57.7833 43° Northeast 500 575 41,100 -50 Level Moncton Center
Thu 12:30:42 AM 50.9667 -57.6333 43° Northeast 510 587 41,000  Descending Moncton Center
Thu 12:31:42 AM 51.0667 -57.4667 46° Northeast 500 575 41,100 50 Climbing Moncton Center
Thu 12:32:42 AM 51.1667 -57.3167 43° Northeast 500 575 41,100 -50 Level Moncton Center
Thu 12:33:42 AM 51.2667 -57.1667 43° Northeast 500 575 41,000 -50 Descending Moncton Center
Thu 12:34:42 AM 51.3500 -57.0000 51° Northeast 500 575 41,000  Level Moncton Center
Thu 12:35:42 AM 51.4667 -56.8333 42° Northeast 490 564 41,000  Level Moncton Center
Thu 12:36:42 AM 51.5500 -56.6833 48° Northeast 500 575 41,000  Level Moncton Center
Thu 12:37:42 AM 51.6500 -56.5167 46° Northeast 490 564 41,000  Level Moncton Center
Thu 12:38:42 AM 51.7500 -56.3667 43° Northeast 490 564 41,000 50 Level Moncton Center
Thu 12:39:42 AM 51.8333 -56.2167 48° Northeast 490 564 41,100 50 Climbing Moncton Center
Thu 12:40:42 AM 51.9333 -56.0500 46° Northeast 490 564 41,100 -50 Level Moncton Center
Thu 12:41:42 AM 52.0167 -55.8833 51° Northeast 490 564 41,000  Descending Moncton Center
Thu 12:42:42 AM 52.1167 -55.7167 46° Northeast 490 564 41,100  Climbing Moncton Center
Thu 12:43:42 AM 52.2167 -55.5667 43° Northeast 490 564 41,000  Descending Moncton Center
Thu 12:44:42 AM 52.3000 -55.4167 48° Northeast 480 552 41,100 50 Climbing Moncton Center
Thu 12:45:42 AM 52.4000 -55.2167 51° Northeast 490 564 41,100  Level Moncton Center
Thu 12:46:42 AM 52.5000 -55.0667 42° Northeast 490 564 41,100  Level Moncton Center
Thu 12:47:42 AM 52.5833 -54.9167 48° Northeast 490 564 41,100 -50 Level Moncton Center
Thu 12:48:42 AM 52.6667 -54.7500 50° Northeast 480 552 41,000 -50 Descending Moncton Center
Thu 12:49:42 AM 52.7667 -54.6000 42° Northeast 490 564 41,000 50 Level Moncton Center
Thu 12:50:42 AM 52.8667 -54.4333 45° Northeast 490 564 41,100 50 Climbing Moncton Center
Thu 12:51:42 AM 52.9500 -54.2667 50° Northeast 480 552 41,100  Level Moncton Center
Thu 12:52:42 AM 53.0333 -54.0833 53° Northeast 490 564 41,100 -74 Level Moncton Center
Thu 12:53:03 AM 53.0667 -54.0333 67° East 480 552 41,000 -222 Descending Gander Center
Thu 12:53:09 AM 53.0667 -54.0667 67° East 491 565 41,000  Level ETMS Enhanced Traffic Management System
Thu 12:54:03 AM 53.1333 -53.8000 64° Northeast 500 575 41,000 53 Level Gander Center
Thu 12:55:03 AM 53.1667 -53.6333 71° East 490 564 41,100 50 Climbing Gander Center
Thu 12:56:03 AM 53.2167 -53.4000 70° East 500 575 41,100  Level Gander Center
Thu 12:57:03 AM 53.2833 -53.1833 63° Northeast 500 575 41,100  Level Gander Center
Thu 12:58:03 AM 53.3333 -52.9833 67° East 500 575 41,100  Level Gander Center
Thu 01:00:03 AM 53.4167 -52.5500 72° East 500 575 41,100  Level Gander Center
Thu 01:01:03 AM 53.4833 -52.3000 66° East 500 575 41,100  Level Gander Center
Thu 01:02:03 AM 53.5167 -52.1000 74° East 500 575 41,100  Level Gander Center
Thu 01:03:03 AM 53.5833 -51.8667 64° Northeast 510 587 41,100  Level Gander Center
Thu 01:04:03 AM 53.6167 -51.6500 75° East 500 575 41,100 -50 Level Gander Center
Thu 01:05:03 AM 53.6833 -51.4333 62° Northeast 500 575 41,000 -50 Descending Gander Center
Thu 01:06:03 AM 53.7000 -51.2000 83° East 500 575 41,000 50 Level Gander Center
Thu 01:07:03 AM 53.7667 -51.0000 61° Northeast 500 575 41,100 50 Climbing Gander Center
Thu 01:08:03 AM 53.8167 -50.7833 69° East 500 575 41,100 -50 Level Gander Center
Thu 01:09:03 AM 53.8667 -50.5333 71° East 490 564 41,000  Descending Gander Center
Thu 01:10:03 AM 53.8833 -50.3333 82° East 490 564 41,100  Climbing Gander Center
Thu 01:11:03 AM 53.9333 -50.1167 69° East 500 575 41,000  Descending Gander Center
Thu 01:12:03 AM 53.9833 -49.8833 70° East 500 575 41,100  Climbing Gander Center
Thu 01:14:00 AM 54.0000 -50.0000 76° East 504 580 41,000 -13 Descending ETMS Enhanced Traffic Management System
Thu 01:20:00 AM 54.2832 -47.9013 78° East 504 580 41,000  Level FlightAware Transoceanic
Thu 01:21:00 AM 54.3124 -47.6664 78° East 504 580 41,000  Level FlightAware Transoceanic
Thu 01:22:00 AM 54.3411 -47.4311 78° East 504 580 41,000  Level FlightAware Transoceanic
Thu 01:23:00 AM 54.3694 -47.1955 78° East 504 580 41,000  Level FlightAware Transoceanic
Thu 01:24:00 AM 54.3972 -46.9596 79° East 504 580 41,000  Level FlightAware Transoceanic
Thu 01:25:00 AM 54.4246 -46.7234 79° East 504 580 41,000  Level FlightAware Transoceanic
Thu 01:26:00 AM 54.4515 -46.4869 79° East 504 580 41,000  Level FlightAware Transoceanic
Thu 01:27:00 AM 54.4780 -46.2500 79° East 504 580 41,000  Level FlightAware Transoceanic
Thu 01:28:00 AM 54.5039 -46.0129 79° East 504 580 41,000  Level FlightAware Transoceanic
Thu 01:29:00 AM 54.5294 -45.7754 80° East 504 580 41,000  Level FlightAware Transoceanic
Thu 01:30:00 AM 54.5545 -45.5377 80° East 504 580 41,000  Level FlightAware Transoceanic
Thu 01:31:00 AM 54.5791 -45.2996 80° East 504 580 41,000  Level FlightAware Transoceanic
Thu 01:32:00 AM 54.6032 -45.0613 80° East 504 580 41,000  Level FlightAware Transoceanic
Thu 01:33:00 AM 54.6268 -44.8227 80° East 504 580 41,000  Level FlightAware Transoceanic
Thu 01:34:00 AM 54.6500 -44.5839 81° East 504 580 41,000  Level FlightAware Transoceanic
Thu 01:35:00 AM 54.6727 -44.3447 81° East 504 580 41,000  Level FlightAware Transoceanic
Thu 01:36:00 AM 54.6950 -44.1053 81° East 504 580 41,000  Level FlightAware Transoceanic
Thu 01:37:00 AM 54.7167 -43.8657 81° East 504 580 41,000  Level FlightAware Transoceanic
Thu 01:38:00 AM 54.7380 -43.6257 81° East 504 580 41,000  Level FlightAware Transoceanic
Thu 01:39:00 AM 54.7588 -43.3856 82° East 504 580 41,000  Level FlightAware Transoceanic
Thu 01:40:00 AM 54.7792 -43.1452 82° East 504 580 41,000  Level FlightAware Transoceanic
Thu 01:41:00 AM 54.7990 -42.9045 82° East 504 580 41,000  Level FlightAware Transoceanic
Thu 01:42:00 AM 54.8184 -42.6636 82° East 504 580 41,000  Level FlightAware Transoceanic
Thu 01:43:00 AM 54.8373 -42.4225 82° East 504 580 41,000  Level FlightAware Transoceanic
Thu 01:44:00 AM 54.8558 -42.1812 83° East 504 580 41,000  Level FlightAware Transoceanic
Thu 01:45:00 AM 54.8737 -41.9396 83° East 504 580 41,000  Level FlightAware Transoceanic
Thu 01:46:00 AM 54.8912 -41.6978 83° East 504 580 41,000  Level FlightAware Transoceanic
Thu 01:47:00 AM 54.9082 -41.4559 83° East 504 580 41,000  Level FlightAware Transoceanic
Thu 01:48:00 AM 54.9247 -41.2137 83° East 504 580 41,000  Level FlightAware Transoceanic
Thu 01:49:00 AM 54.9407 -40.9713 84° East 504 580 41,000  Level FlightAware Transoceanic
Thu 01:50:00 AM 54.9563 -40.7288 84° East 504 580 41,000  Level FlightAware Transoceanic
Thu 01:51:00 AM 54.9713 -40.4860 84° East 504 580 41,000  Level FlightAware Transoceanic
Thu 01:52:00 AM 54.9859 -40.2431 84° East 504 580 41,000  Level FlightAware Transoceanic
Thu 01:53:00 AM 54.9987 -40.0230 84° East  Level FlightAware Approximate
Thu 01:54:00 AM 55.0111 -39.8027 84° East  Level FlightAware Approximate
Thu 01:55:00 AM 55.0070 -39.8253 86° East  Level FlightAware Approximate
Thu 01:56:00 AM 55.0156 -39.6045 86° East  Level FlightAware Approximate
Thu 01:57:00 AM 55.0238 -39.3836 86° East  Level FlightAware Approximate
Thu 01:58:00 AM 55.0315 -39.1625 86° East  Level FlightAware Approximate
Thu 01:58:25 AM 55.0000 -40.0000 86° East 468 539 41,000  Level ETMS Enhanced Traffic Management System
Thu 01:59:00 AM 55.0389 -38.9414 87° East  Level FlightAware Approximate
Thu 02:00:00 AM 55.0458 -38.7202 87° East  Level FlightAware Approximate
Thu 02:01:00 AM 55.0524 -38.4990 87° East  Level FlightAware Approximate
Thu 02:02:00 AM 55.0585 -38.2777 87° East  Level FlightAware Approximate
Thu 02:03:00 AM 55.0643 -38.0563 87° East  Level FlightAware Approximate
Thu 02:04:00 AM 55.0667 -37.9578 88° East 468 539 41,000  Level FlightAware Transoceanic
Thu 02:05:00 AM 55.0720 -37.7305 88° East 468 539 41,000  Level FlightAware Transoceanic
Thu 02:06:00 AM 55.0769 -37.5032 88° East 468 539 41,000  Level FlightAware Transoceanic
Thu 02:07:00 AM 55.0813 -37.2758 88° East 468 539 41,000  Level FlightAware Transoceanic
Thu 02:08:00 AM 55.0854 -37.0484 88° East 468 539 41,000  Level FlightAware Transoceanic
Thu 02:09:00 AM 55.0890 -36.8209 89° East 468 539 41,000  Level FlightAware Transoceanic
Thu 02:10:00 AM 55.0922 -36.5933 89° East 468 539 41,000  Level FlightAware Transoceanic
Thu 02:11:00 AM 55.0949 -36.3658 89° East 468 539 41,000  Level FlightAware Transoceanic
Thu 02:12:00 AM 55.0973 -36.1382 89° East 468 539 41,000  Level FlightAware Transoceanic
Thu 02:13:00 AM 55.0992 -35.9106 89° East 468 539 41,000  Level FlightAware Transoceanic
Thu 02:14:00 AM 55.1007 -35.6830 89° East 468 539 41,000  Level FlightAware Transoceanic
Thu 02:15:00 AM 55.1017 -35.4553 90° East 468 539 41,000  Level FlightAware Transoceanic
Thu 02:16:00 AM 55.1024 -35.2277 90° East 468 539 41,000  Level FlightAware Transoceanic
Thu 02:17:00 AM 55.1026 -35.0000 90° East 468 539 41,000  Level FlightAware Transoceanic
Thu 02:18:00 AM 55.1024 -34.7723 90° East 468 539 41,000  Level FlightAware Transoceanic
Thu 02:19:00 AM 55.1017 -34.5447 90° East 468 539 41,000  Level FlightAware Transoceanic
Thu 02:20:00 AM 55.1007 -34.3170 91° East 468 539 41,000  Level FlightAware Transoceanic
Thu 02:21:00 AM 55.0992 -34.0894 91° East 468 539 41,000  Level FlightAware Transoceanic
Thu 02:22:00 AM 55.0973 -33.8618 91° East 468 539 41,000  Level FlightAware Transoceanic
Thu 02:23:00 AM 55.0949 -33.6342 91° East 468 539 41,000  Level FlightAware Transoceanic
Thu 02:24:00 AM 55.0922 -33.4067 91° East 468 539 41,000  Level FlightAware Transoceanic
Thu 02:25:00 AM 55.0890 -33.1791 91° East 468 539 41,000  Level FlightAware Transoceanic
Thu 02:26:00 AM 55.0854 -32.9516 92° East 468 539 41,000  Level FlightAware Transoceanic
Thu 02:27:00 AM 55.0813 -32.7242 92° East 468 539 41,000  Level FlightAware Transoceanic
Thu 02:28:00 AM 55.0769 -32.4968 92° East 468 539 41,000  Level FlightAware Transoceanic
Thu 02:29:00 AM 55.0720 -32.2695 92° East 468 539 41,000  Level FlightAware Transoceanic
Thu 02:30:00 AM 55.0667 -32.0422 92° East 468 539 41,000  Level FlightAware Transoceanic
Thu 02:31:00 AM 55.0610 -31.8150 93° East 468 539 41,000  Level FlightAware Transoceanic
Thu 02:32:00 AM 55.0549 -31.5878 93° East 468 539 41,000  Level FlightAware Transoceanic
Thu 02:33:00 AM 55.0483 -31.3607 93° East 468 539 41,000  Level FlightAware Transoceanic
Thu 02:34:00 AM 55.0413 -31.1337 93° East 468 539 41,000  Level FlightAware Transoceanic
Thu 02:35:00 AM 55.0339 -30.9068 93° East 468 539 41,000  Level FlightAware Transoceanic
Thu 02:36:00 AM 55.0260 -30.6800 94° East 468 539 41,000  Level FlightAware Transoceanic
Thu 02:37:00 AM 55.0178 -30.4532 94° East 468 539 41,000  Level FlightAware Transoceanic
Thu 02:38:00 AM 55.0091 -30.2265 94° East 468 539 41,000  Level FlightAware Transoceanic
Thu 02:39:00 AM 55.0002 -30.0058 94° East  Level FlightAware Approximate
Thu 02:40:00 AM 54.9909 -29.7851 94° East  Level FlightAware Approximate
Thu 02:40:00 AM 55.0000 -30.0000 96° East 481 554 41,000  Level ETMS Enhanced Traffic Management System
Thu 02:41:00 AM 54.9875 -29.7915 96° East  Level FlightAware Approximate
Thu 02:42:00 AM 54.9740 -29.5716 96° East  Level FlightAware Approximate
Thu 02:43:00 AM 54.9600 -29.3518 96° East  Level FlightAware Approximate
Thu 02:44:00 AM 54.9456 -29.1322 96° East  Level FlightAware Approximate
Thu 02:45:00 AM 54.9309 -28.9127 97° East  Level FlightAware Approximate
Thu 02:46:00 AM 54.8966 -28.3791 97° East 481 554 41,000  Level FlightAware Transoceanic
Thu 02:47:00 AM 54.8801 -28.1483 97° East 481 554 41,000  Level FlightAware Transoceanic
Thu 02:48:00 AM 54.8632 -27.9176 97° East 481 554 41,000  Level FlightAware Transoceanic
Thu 02:49:00 AM 54.8458 -27.6872 98° East 481 554 41,000  Level FlightAware Transoceanic
Thu 02:50:00 AM 54.8279 -27.4569 98° East 481 554 41,000  Level FlightAware Transoceanic
Thu 02:51:00 AM 54.8097 -27.2269 98° East 481 554 41,000  Level FlightAware Transoceanic
Thu 02:52:00 AM 54.7910 -26.9970 98° East 481 554 41,000  Level FlightAware Transoceanic
Thu 02:53:00 AM 54.7718 -26.7674 98° East 481 554 41,000  Level FlightAware Transoceanic
Thu 02:54:00 AM 54.7523 -26.5380 99° East 481 554 41,000  Level FlightAware Transoceanic
Thu 02:55:00 AM 54.7322 -26.3088 99° East 481 554 41,000  Level FlightAware Transoceanic
Thu 02:56:00 AM 54.7118 -26.0798 99° East 481 554 41,000  Level FlightAware Transoceanic
Thu 02:57:00 AM 54.6909 -25.8511 99° East 481 554 41,000  Level FlightAware Transoceanic
Thu 02:58:00 AM 54.6697 -25.6227 99° East 481 554 41,000  Level FlightAware Transoceanic
Thu 02:59:00 AM 54.6479 -25.3944 99° East 481 554 41,000  Level FlightAware Transoceanic
Thu 03:00:00 AM 54.6258 -25.1664 100° East 481 554 41,000  Level FlightAware Transoceanic
Thu 03:01:00 AM 54.6032 -24.9387 100° East 481 554 41,000  Level FlightAware Transoceanic
Thu 03:02:00 AM 54.5802 -24.7112 100° East 481 554 41,000  Level FlightAware Transoceanic
Thu 03:03:00 AM 54.5568 -24.4839 100° East 481 554 41,000  Level FlightAware Transoceanic
Thu 03:04:00 AM 54.5329 -24.2570 100° East 481 554 41,000  Level FlightAware Transoceanic
Thu 03:05:00 AM 54.5086 -24.0303 101° East 481 554 41,000  Level FlightAware Transoceanic
Thu 03:06:00 AM 54.4839 -23.8039 101° East 481 554 41,000  Level FlightAware Transoceanic
Thu 03:07:00 AM 54.4588 -23.5777 101° East 481 554 41,000  Level FlightAware Transoceanic
Thu 03:08:00 AM 54.4332 -23.3518 101° East 481 554 41,000  Level FlightAware Transoceanic
Thu 03:09:00 AM 54.4072 -23.1262 101° East 481 554 41,000  Level FlightAware Transoceanic
Thu 03:10:00 AM 54.3809 -22.9009 101° East 481 554 41,000  Level FlightAware Transoceanic
Thu 03:11:00 AM 54.3540 -22.6759 102° East 481 554 41,000  Level FlightAware Transoceanic
Thu 03:12:00 AM 54.3268 -22.4512 102° East 481 554 41,000  Level FlightAware Transoceanic
Thu 03:13:00 AM 54.2992 -22.2268 102° East 481 554 41,000  Level FlightAware Transoceanic
Thu 03:14:00 AM 54.2711 -22.0027 102° East 481 554 41,000  Level FlightAware Transoceanic
Thu 03:15:00 AM 54.2426 -21.7789 102° East 481 554 41,000  Level FlightAware Transoceanic
Thu 03:16:00 AM 54.2137 -21.5554 103° East 481 554 41,000  Level FlightAware Transoceanic
Thu 03:17:00 AM 54.1844 -21.3323 103° East 481 554 41,000  Level FlightAware Transoceanic
Thu 03:18:00 AM 54.1547 -21.1094 103° East 481 554 41,000  Level FlightAware Transoceanic
Thu 03:19:00 AM 54.1246 -20.8869 103° East 481 554 41,000  Level FlightAware Transoceanic
Thu 03:20:00 AM 54.0941 -20.6646 103° East 481 554 41,000  Level FlightAware Transoceanic
Thu 03:21:00 AM 54.0631 -20.4428 103° East 481 554 41,000  Level FlightAware Transoceanic
Thu 03:22:00 AM 54.0318 -20.2212 104° East 481 554 41,000 36 Level FlightAware Transoceanic
Thu 03:23:00 AM 54.0016 -20.0114 104° East  Level FlightAware Approximate
Thu 03:24:00 AM 53.9712 -19.8018 104° East  Level FlightAware Approximate
Thu 03:25:00 AM 54.0026 -19.8075 89° East  Level FlightAware Approximate
Thu 03:26:00 AM 54.0051 -19.5916 89° East  Level FlightAware Approximate
Thu 03:27:00 AM 54.0072 -19.3757 89° East  Level FlightAware Approximate
Thu 03:28:00 AM 54.0089 -19.1597 89° East  Level FlightAware Approximate
Thu 03:29:00 AM 54.0103 -18.9437 89° East  Level FlightAware Approximate
Thu 03:30:00 AM 54.0112 -18.7277 89° East  Level FlightAware Approximate
Thu 03:31:00 AM 54.0118 -18.5117 90° East  Level FlightAware Approximate
Thu 03:32:00 AM 54.0120 -18.2957 90° East  Level FlightAware Approximate
Thu 03:33:00 AM 54.0117 -18.0798 90° East  Level FlightAware Approximate
Thu 03:34:00 AM 54.0112 -17.8638 90° East  Level FlightAware Approximate
Thu 03:35:00 AM 54.0102 -17.6478 90° East  Level FlightAware Approximate
Thu 03:36:00 AM 54.0088 -17.4318 91° East  Level FlightAware Approximate
Thu 03:37:00 AM 54.0071 -17.2159 91° East  Level FlightAware Approximate
Thu 03:38:00 AM 54.0049 -16.9999 91° East  Level FlightAware Approximate
Thu 03:39:00 AM 54.0024 -16.7840 91° East  Level FlightAware Approximate
Thu 03:40:00 AM 53.9995 -16.5681 91° East  Level FlightAware Approximate
Thu 03:41:00 AM 53.9962 -16.3523 91° East  Level FlightAware Approximate
Thu 03:42:00 AM 53.9925 -16.1365 92° East  Level FlightAware Approximate
Thu 03:43:00 AM 53.9884 -15.9207 92° East  Level FlightAware Approximate
Thu 03:44:00 AM 53.9840 -15.7050 92° East  Level FlightAware Approximate
Thu 03:45:00 AM 53.9791 -15.4893 92° East  Level FlightAware Approximate
Thu 03:46:00 AM 53.9739 -15.2737 92° East  Level FlightAware Approximate
Thu 03:47:00 AM 53.9683 -15.0581 92° East  Level FlightAware Approximate
Thu 03:48:00 AM 53.9625 -14.8426 93° East  Level FlightAware Approximate
Thu 03:49:00 AM 53.9565 -14.6271 93° East  Level FlightAware Approximate
Thu 03:50:00 AM 53.9500 -14.4116 93° East  Level FlightAware Approximate
Thu 03:51:00 AM 53.9432 -14.1963 93° East  Level FlightAware Approximate
Thu 03:52:00 AM 53.9360 -13.9810 93° East  Level FlightAware Approximate
Thu 03:53:00 AM 53.9284 -13.7658 93° East  Level FlightAware Approximate
Thu 03:54:00 AM 53.9205 -13.5507 94° East  Level FlightAware Approximate
Thu 03:55:00 AM 53.9121 -13.3357 94° East  Level FlightAware Approximate
Thu 03:56:00 AM 53.9034 -13.1207 94° East  Level FlightAware Approximate
Thu 03:57:00 AM 53.8943 -12.9059 94° East  Level FlightAware Approximate
Thu 03:58:00 AM 53.8848 -12.6911 94° East  Level FlightAware Approximate
Thu 03:59:00 AM 53.8749 -12.4765 94° East  Level FlightAware Approximate
Thu 04:00:00 AM 53.8646 -12.2619 95° East  Level FlightAware Approximate
Thu 04:01:00 AM 53.8540 -12.0475 95° East  Level FlightAware Approximate
Thu 04:02:00 AM 53.8429 -11.8331 95° East  Level FlightAware Approximate
Thu 04:03:00 AM 53.8315 -11.6189 95° East  Level FlightAware Approximate
Thu 04:04:00 AM 53.8197 -11.4048 95° East  Level FlightAware Approximate
Thu 04:05:00 AM 53.8076 -11.1908 95° East  Level FlightAware Approximate
Thu 04:06:00 AM 53.7950 -10.9769 96° East  Level FlightAware Approximate
Thu 04:07:00 AM 53.7821 -10.7632 96° East  Level FlightAware Approximate
Thu 04:08:00 AM 53.7688 -10.5496 96° East  Level FlightAware Approximate
Thu 04:09:00 AM 53.7573 -10.3358 95° East  Level FlightAware Approximate
Thu 04:10:00 AM 53.7424 -10.1228 99° East  Level FlightAware Approximate
Thu 04:11:00 AM 53.7212 -9.9113 100° East  Level FlightAware Approximate
Thu 04:12:00 AM 53.7091 -9.6979 94° East  Level FlightAware Approximate
Thu 04:13:00 AM 53.6984 -9.4843 100° East  Level FlightAware Approximate
Thu 04:14:00 AM 53.6735 -9.2744 106° East  Level FlightAware Approximate
Thu 04:15:00 AM 53.6597 -9.0622 94° East  Level FlightAware Approximate
Thu 04:16:00 AM 53.6507 -8.8486 94° East  Level FlightAware Approximate
Thu 04:16:26 AM 53.8701 -8.9554 94° East 464 534 43,000  Level FlightAware UK
Thu 04:16:56 AM 53.8651 -8.8506 95° East 468 539 42,400 -1,900 Descending FlightAware UK
Thu 04:17:26 AM 53.8602 -8.7443 94° East 478 550 41,100 -2,600 Descending FlightAware UK
Thu 04:17:56 AM 53.8547 -8.6354 95° East 470 541 39,800 -2,500 Descending FlightAware UK
Thu 04:18:26 AM 53.8495 -8.5287 95° East 466 536 38,600 -2,300 Descending FlightAware UK
Thu 04:18:56 AM 53.8441 -8.4232 95° East 456 525 37,500 -2,300 Descending FlightAware UK
Thu 04:19:26 AM 53.8388 -8.3195 95° East 446 513 36,300 -2,300 Descending FlightAware UK
Thu 04:19:56 AM 53.8333 -8.2147 95° East 458 527 35,200 -2,300 Descending FlightAware UK
Thu 04:20:26 AM 53.8274 -8.1061 95° East 466 536 34,000 -2,400 Descending FlightAware UK
Thu 04:20:56 AM 53.8215 -7.9963 95° East 470 541 32,800 -2,500 Descending FlightAware UK
Thu 04:21:26 AM 53.8153 -7.8845 95° East 476 548 31,500 -2,500 Descending FlightAware UK
Thu 04:21:56 AM 53.8089 -7.7714 95° East 480 552 30,300 -2,500 Descending FlightAware UK
Thu 04:22:26 AM 53.8024 -7.6580 96° East 476 548 29,000 -2,500 Descending FlightAware UK
Thu 04:22:56 AM 53.7960 -7.5465 96° East 462 532 27,800 -2,400 Descending FlightAware UK
Thu 04:23:26 AM 53.7896 -7.4404 96° East 452 520 26,600 -2,400 Descending FlightAware UK
Thu 04:23:56 AM 53.7829 -7.3358 96° East 446 513 25,400 -2,262 Descending FlightAware UK
Thu 04:24:27 AM 53.7743 -7.2318 98° East 436 502 24,300 -2,262 Descending FlightAware UK
Thu 04:24:57 AM 53.7646 -7.1308 99° East 428 493 23,100 -2,300 Descending FlightAware UK
Thu 04:25:27 AM 53.7545 -7.0322 100° East 422 486 22,000 -2,200 Descending FlightAware UK
Thu 04:25:57 AM 53.7444 -6.9344 100° East 416 479 20,900 -2,200 Descending FlightAware UK
Thu 04:26:27 AM 53.7344 -6.8380 100° East 408 470 19,800 -2,100 Descending FlightAware UK
Thu 04:26:57 AM 53.7244 -6.7431 100° East 404 465 18,800 -2,100 Descending FlightAware UK
Thu 04:27:27 AM 53.7148 -6.6510 100° East 398 458 17,700 -2,100 Descending FlightAware UK
Thu 04:27:57 AM 53.7051 -6.5600 100° East 390 449 16,700 -2,000 Descending FlightAware UK
Thu 04:28:27 AM 53.6957 -6.4711 100° East 386 444 15,700 -2,000 Descending FlightAware UK
Thu 04:28:57 AM 53.6864 -6.3839 100° East 378 435 14,700 -1,900 Descending FlightAware UK
Thu 04:29:27 AM 53.6775 -6.3019 100° East 354 407 13,800 -1,800 Descending FlightAware UK
Thu 04:29:57 AM 53.6689 -6.2236 100° East 334 384 12,900 -1,700 Descending FlightAware UK
Thu 04:30:27 AM 53.6609 -6.1494 100° East 324 373 12,100 -1,727 Descending FlightAware UK
Thu 04:31:03 AM 53.6426 -6.0708 111° Southeast 298 343 11,000 -2,077 Descending FlightAware UK
Thu 04:31:45 AM 53.5945 -6.0135 145° Southeast 298 343 9,400 -2,154 Descending FlightAware UK
Thu 04:32:21 AM 53.5530 -5.9706 148° Southeast 286 329 8,200 -2,167 Descending FlightAware UK
Thu 04:32:57 AM 53.5126 -5.9283 148° Southeast 282 325 6,800 -2,417 Descending FlightAware UK
Thu 04:33:33 AM 53.4733 -5.8878 149° Southeast 272 313 5,300 -1,636 Descending FlightAware UK
Thu 04:34:03 AM 53.4402 -5.8843 176° South 224 258 5,000 -1,250 Descending FlightAware UK
Thu 04:34:45 AM 53.4125 -5.9306 225° Southwest 192 221 3,800 -1,583 Descending FlightAware UK
Thu 04:35:15 AM 53.3972 -5.9694 237° Southwest 194 223 3,100 -1,200 Descending FlightAware UK
Thu 04:35:45 AM 53.3953 -6.0157 266° West 200 230 2,600 -1,182 Descending FlightAware UK
Thu 04:36:21 AM 53.4015 -6.0713 281° West 190 219 1,800 -1,333 Descending FlightAware UK
Thu 04:38:00 AM 53.4213 -6.2701 280° West  Level Estimated
Thu 04:45:00 AM 53.4213 -6.2701 315° West  Level Estimated
Thu 04:46:00 AM 53.4213 -6.2701 315° West  Level Estimated
Thu 04:47:00 AM 53.4213 -6.2701 315° West  Level Estimated
Thu 04:48:00 AM 53.4213 -6.2701 315° West  Level Estimated
Thu 04:49:00 AM 53.4213 -6.2701 315° West  Level Estimated
Thu 04:50:00 AM 53.4213 -6.2701 315° West  Level Estimated
Thu 04:51:00 AM 53.4213 -6.2701 315° West  Level Estimated
Thu 04:52:00 AM 53.4213 -6.2701 315° West  Level Estimated

Login

Don't have an account? Register now (free) for customized features, flight alerts, and more!